createdAt,value
2019-06-26T00:05:04.114Z,22.9
2019-06-26T00:20:03.122Z,22.9
2019-06-26T00:35:03.161Z,22.8
2019-06-26T00:50:03.759Z,22.7
2019-06-26T01:05:05.312Z,22.7
2019-06-26T01:20:03.917Z,22.6
2019-06-26T01:35:02.834Z,22.6
2019-06-26T01:50:02.982Z,22.5
2019-06-26T02:05:02.781Z,22.5
2019-06-26T02:20:05.154Z,22.4
2019-06-26T02:35:03.149Z,22.4
2019-06-26T02:50:03.420Z,22.3
2019-06-26T03:05:03.658Z,22.3
2019-06-26T03:20:05.686Z,22.3
2019-06-26T03:35:05.090Z,22.2
2019-06-26T03:50:03.127Z,22.2
2019-06-26T04:05:02.968Z,22.2
2019-06-26T04:20:03.543Z,22.2
2019-06-26T04:35:04.597Z,22.2
2019-06-26T04:50:04.786Z,22.2
2019-06-26T05:05:04.609Z,22.2
2019-06-26T05:20:05.082Z,22.3
2019-06-26T05:35:03.268Z,22.4
2019-06-26T05:50:04.642Z,22.6
2019-06-26T06:05:05.485Z,22.7
2019-06-26T06:20:06.358Z,22.9
2019-06-26T06:35:03.675Z,23
2019-06-26T06:50:04.912Z,23.3
2019-06-26T07:05:03.590Z,23.3
2019-06-26T07:20:04.610Z,23.5
2019-06-26T07:35:04.124Z,23.6
2019-06-26T07:50:05.229Z,23.8
2019-06-26T08:05:03.419Z,23.8
2019-06-26T08:20:04.298Z,24
2019-06-26T08:35:04.267Z,24.1
2019-06-26T08:50:03.849Z,24.3
2019-06-26T09:05:03.294Z,24.3
2019-06-26T09:20:05.101Z,24.5
2019-06-26T09:35:03.077Z,24.6
2019-06-26T09:50:04.484Z,24.7
2019-06-26T10:05:04.016Z,24.7
2019-06-26T10:20:03.902Z,24.8
2019-06-26T10:35:02.805Z,24.8
2019-06-26T10:50:06.462Z,24.9
2019-06-26T11:05:03.607Z,24.9
2019-06-26T11:20:11.996Z,25
2019-06-26T11:35:08.528Z,25
2019-06-26T12:05:07.202Z,25.1
2019-06-26T12:20:17.552Z,25.1
2019-06-26T12:35:06.562Z,25.1
2019-06-26T12:50:03.844Z,25.1
2019-06-26T13:05:03.036Z,25.1
2019-06-26T13:20:03.585Z,25.2
2019-06-26T13:35:04.794Z,25.2
2019-06-26T13:50:06.980Z,25.3
2019-06-26T14:05:03.545Z,25.3
2019-06-26T14:20:04.260Z,25.4
2019-06-26T14:35:04.175Z,25.5
2019-06-26T14:50:03.885Z,25.5
2019-06-26T15:05:03.023Z,25.5
2019-06-26T15:20:06.362Z,25.6
2019-06-26T15:35:03.915Z,25.6
2019-06-26T15:50:02.908Z,25.6
2019-06-26T16:05:02.778Z,25.7
2019-06-26T16:20:05.877Z,25.7
2019-06-26T16:35:02.893Z,25.7
2019-06-26T16:50:02.997Z,25.8
2019-06-26T17:05:02.920Z,25.9
2019-06-26T17:20:03.356Z,26
2019-06-26T17:35:03.703Z,26.1
2019-06-26T17:50:05.131Z,26.1
2019-06-26T18:05:04.092Z,26.1
2019-06-26T18:20:03.623Z,26
2019-06-26T18:35:04.405Z,26
2019-06-26T18:50:04.511Z,26
2019-06-26T19:05:04.529Z,25.7
2019-06-26T19:20:04.140Z,25.6
2019-06-26T19:50:03.388Z,25.2
2019-06-26T20:05:04.750Z,25
2019-06-26T20:20:05.240Z,24.9
2019-06-26T20:35:03.581Z,24.7
2019-06-26T20:50:04.630Z,24.6
2019-06-26T21:05:04.455Z,24.4
2019-06-26T21:20:04.057Z,24.3
2019-06-26T21:35:03.671Z,24.1
2019-06-26T21:50:05.294Z,24
2019-06-26T22:05:04.318Z,23.9
2019-06-26T22:20:06.871Z,23.9
2019-06-26T22:35:03.560Z,23.8
2019-06-26T22:50:03.975Z,23.8
2019-06-26T23:05:02.994Z,23.8
2019-06-26T23:20:03.227Z,23.7
2019-06-26T23:35:03.271Z,23.7
2019-06-26T23:50:03.281Z,23.5
